sensor_id;sensor_type;location;lat;lon;timestamp;P1;durP1;ratioP1;P2;durP2;ratioP2
75408;SDS011;63979;55.644;37.734;2023-09-18T00:01:41;11.07;;;6.43;;
75408;SDS011;63979;55.644;37.734;2023-09-18T00:06:43;12.20;;;6.03;;
75408;SDS011;63979;55.644;37.734;2023-09-18T00:11:44;9.25;;;6.65;;
75408;SDS011;63979;55.644;37.734;2023-09-18T00:16:45;10.02;;;6.13;;
75408;SDS011;63979;55.644;37.734;2023-09-18T00:21:45;11.98;;;5.63;;
75408;SDS011;63979;55.644;37.734;2023-09-18T00:26:47;13.95;;;5.93;;
75408;SDS011;63979;55.644;37.734;2023-09-18T00:31:48;8.43;;;5.07;;
75408;SDS011;63979;55.644;37.734;2023-09-18T00:36:49;10.98;;;6.25;;
75408;SDS011;63979;55.644;37.734;2023-09-18T00:41:51;10.57;;;5.75;;
75408;SDS011;63979;55.644;37.734;2023-09-18T00:46:54;7.35;;;4.88;;
75408;SDS011;63979;55.644;37.734;2023-09-18T00:51:56;9.38;;;5.68;;
75408;SDS011;63979;55.644;37.734;2023-09-18T00:56:57;7.03;;;4.32;;
75408;SDS011;63979;55.644;37.734;2023-09-18T01:01:58;8.32;;;5.07;;
75408;SDS011;63979;55.644;37.734;2023-09-18T01:07:00;7.53;;;4.47;;
75408;SDS011;63979;55.644;37.734;2023-09-18T01:17:24;7.68;;;4.43;;
75408;SDS011;63979;55.644;37.734;2023-09-18T01:22:28;5.18;;;4.10;;
75408;SDS011;63979;55.644;37.734;2023-09-18T01:27:30;7.88;;;3.50;;
75408;SDS011;63979;55.644;37.734;2023-09-18T01:32:32;6.65;;;4.50;;
75408;SDS011;63979;55.644;37.734;2023-09-18T01:37:34;9.40;;;4.63;;
75408;SDS011;63979;55.644;37.734;2023-09-18T01:42:38;5.97;;;4.38;;
75408;SDS011;63979;55.644;37.734;2023-09-18T01:47:40;6.32;;;3.47;;
75408;SDS011;63979;55.644;37.734;2023-09-18T01:52:41;6.95;;;4.50;;
75408;SDS011;63979;55.644;37.734;2023-09-18T01:57:42;7.97;;;4.40;;
75408;SDS011;63979;55.644;37.734;2023-09-18T02:02:43;5.82;;;4.03;;
75408;SDS011;63979;55.644;37.734;2023-09-18T02:07:45;5.68;;;3.97;;
75408;SDS011;63979;55.644;37.734;2023-09-18T02:12:46;6.90;;;3.80;;
75408;SDS011;63979;55.644;37.734;2023-09-18T02:17:47;5.68;;;3.85;;
75408;SDS011;63979;55.644;37.734;2023-09-18T02:22:49;5.25;;;3.83;;
75408;SDS011;63979;55.644;37.734;2023-09-18T02:27:50;7.43;;;4.50;;
75408;SDS011;63979;55.644;37.734;2023-09-18T02:32:52;8.20;;;4.55;;
75408;SDS011;63979;55.644;37.734;2023-09-18T02:37:53;6.03;;;4.03;;
75408;SDS011;63979;55.644;37.734;2023-09-18T02:42:54;8.02;;;5.10;;
75408;SDS011;63979;55.644;37.734;2023-09-18T02:47:55;6.22;;;3.53;;
75408;SDS011;63979;55.644;37.734;2023-09-18T02:52:56;6.57;;;3.88;;
75408;SDS011;63979;55.644;37.734;2023-09-18T02:57:58;4.88;;;3.47;;
75408;SDS011;63979;55.644;37.734;2023-09-18T03:02:59;7.05;;;4.93;;
75408;SDS011;63979;55.644;37.734;2023-09-18T03:08:01;6.30;;;4.07;;
75408;SDS011;63979;55.644;37.734;2023-09-18T03:13:02;5.90;;;4.28;;
75408;SDS011;63979;55.644;37.734;2023-09-18T03:18:04;7.90;;;4.25;;
75408;SDS011;63979;55.644;37.734;2023-09-18T03:23:07;5.57;;;3.65;;
75408;SDS011;63979;55.644;37.734;2023-09-18T03:28:08;5.22;;;3.90;;
75408;SDS011;63979;55.644;37.734;2023-09-18T03:33:10;8.10;;;4.70;;
75408;SDS011;63979;55.644;37.734;2023-09-18T03:38:11;6.25;;;3.90;;
75408;SDS011;63979;55.644;37.734;2023-09-18T03:43:12;6.85;;;4.13;;
75408;SDS011;63979;55.644;37.734;2023-09-18T03:48:13;5.50;;;4.45;;
75408;SDS011;63979;55.644;37.734;2023-09-18T03:53:14;5.75;;;4.40;;
75408;SDS011;63979;55.644;37.734;2023-09-18T03:58:15;7.78;;;4.95;;
75408;SDS011;63979;55.644;37.734;2023-09-18T04:03:16;4.97;;;3.95;;
75408;SDS011;63979;55.644;37.734;2023-09-18T04:08:17;6.43;;;4.43;;
75408;SDS011;63979;55.644;37.734;2023-09-18T04:13:18;8.43;;;4.70;;
75408;SDS011;63979;55.644;37.734;2023-09-18T04:18:19;7.07;;;4.10;;
75408;SDS011;63979;55.644;37.734;2023-09-18T04:23:21;5.63;;;3.95;;
75408;SDS011;63979;55.644;37.734;2023-09-18T04:28:25;7.25;;;4.68;;
75408;SDS011;63979;55.644;37.734;2023-09-18T04:33:26;6.05;;;4.38;;
75408;SDS011;63979;55.644;37.734;2023-09-18T04:38:29;13.23;;;4.50;;
75408;SDS011;63979;55.644;37.734;2023-09-18T04:43:30;10.45;;;4.70;;
75408;SDS011;63979;55.644;37.734;2023-09-18T04:48:31;5.90;;;4.15;;
75408;SDS011;63979;55.644;37.734;2023-09-18T04:53:33;6.95;;;4.13;;
75408;SDS011;63979;55.644;37.734;2023-09-18T04:58:34;7.57;;;4.75;;
75408;SDS011;63979;55.644;37.734;2023-09-18T05:03:37;7.25;;;4.47;;
75408;SDS011;63979;55.644;37.734;2023-09-18T05:08:39;8.65;;;4.03;;
75408;SDS011;63979;55.644;37.734;2023-09-18T05:13:40;7.13;;;4.75;;
75408;SDS011;63979;55.644;37.734;2023-09-18T05:18:41;6.30;;;4.53;;
75408;SDS011;63979;55.644;37.734;2023-09-18T05:23:42;7.57;;;4.05;;
75408;SDS011;63979;55.644;37.734;2023-09-18T05:28:43;5.82;;;4.03;;
75408;SDS011;63979;55.644;37.734;2023-09-18T05:33:45;9.00;;;6.05;;
75408;SDS011;63979;55.644;37.734;2023-09-18T05:38:46;8.48;;;5.10;;
75408;SDS011;63979;55.644;37.734;2023-09-18T05:43:47;6.82;;;4.30;;
75408;SDS011;63979;55.644;37.734;2023-09-18T05:48:49;8.73;;;4.88;;
75408;SDS011;63979;55.644;37.734;2023-09-18T05:58:51;7.70;;;4.95;;
75408;SDS011;63979;55.644;37.734;2023-09-18T06:03:53;7.35;;;4.68;;
75408;SDS011;63979;55.644;37.734;2023-09-18T06:08:54;6.90;;;5.20;;
75408;SDS011;63979;55.644;37.734;2023-09-18T06:13:55;6.43;;;4.53;;
75408;SDS011;63979;55.644;37.734;2023-09-18T06:18:56;6.00;;;4.50;;
75408;SDS011;63979;55.644;37.734;2023-09-18T06:23:57;9.20;;;5.10;;
75408;SDS011;63979;55.644;37.734;2023-09-18T06:28:58;8.32;;;4.85;;
75408;SDS011;63979;55.644;37.734;2023-09-18T06:33:59;5.78;;;4.75;;
75408;SDS011;63979;55.644;37.734;2023-09-18T06:39:00;6.45;;;4.43;;
75408;SDS011;63979;55.644;37.734;2023-09-18T06:44:02;8.23;;;4.70;;
75408;SDS011;63979;55.644;37.734;2023-09-18T06:49:04;7.72;;;4.72;;
75408;SDS011;63979;55.644;37.734;2023-09-18T06:54:05;8.52;;;5.15;;
75408;SDS011;63979;55.644;37.734;2023-09-18T06:59:06;6.25;;;4.63;;
75408;SDS011;63979;55.644;37.734;2023-09-18T07:04:08;4.93;;;4.35;;
75408;SDS011;63979;55.644;37.734;2023-09-18T07:09:09;8.13;;;5.00;;
75408;SDS011;63979;55.644;37.734;2023-09-18T07:14:12;7.03;;;4.88;;
75408;SDS011;63979;55.644;37.734;2023-09-18T07:19:13;6.63;;;4.57;;
75408;SDS011;63979;55.644;37.734;2023-09-18T07:24:17;10.88;;;4.40;;
75408;SDS011;63979;55.644;37.734;2023-09-18T07:29:18;8.02;;;4.95;;
75408;SDS011;63979;55.644;37.734;2023-09-18T07:34:20;7.43;;;4.20;;
75408;SDS011;63979;55.644;37.734;2023-09-18T07:39:21;8.10;;;5.07;;
75408;SDS011;63979;55.644;37.734;2023-09-18T07:44:22;7.55;;;5.35;;
75408;SDS011;63979;55.644;37.734;2023-09-18T07:49:23;5.88;;;4.43;;
75408;SDS011;63979;55.644;37.734;2023-09-18T07:54:24;8.00;;;4.88;;
75408;SDS011;63979;55.644;37.734;2023-09-18T07:59:25;10.35;;;5.03;;
75408;SDS011;63979;55.644;37.734;2023-09-18T08:04:27;9.68;;;4.85;;
75408;SDS011;63979;55.644;37.734;2023-09-18T08:09:28;7.82;;;4.70;;
75408;SDS011;63979;55.644;37.734;2023-09-18T08:14:30;8.82;;;4.63;;
75408;SDS011;63979;55.644;37.734;2023-09-18T08:19:31;8.73;;;5.03;;
75408;SDS011;63979;55.644;37.734;2023-09-18T08:24:33;11.55;;;5.53;;
75408;SDS011;63979;55.644;37.734;2023-09-18T08:29:34;11.05;;;5.03;;
75408;SDS011;63979;55.644;37.734;2023-09-18T08:34:35;9.52;;;5.20;;
75408;SDS011;63979;55.644;37.734;2023-09-18T08:39:36;13.52;;;7.05;;
75408;SDS011;63979;55.644;37.734;2023-09-18T08:44:38;10.48;;;5.85;;
75408;SDS011;63979;55.644;37.734;2023-09-18T08:49:41;8.50;;;4.82;;
75408;SDS011;63979;55.644;37.734;2023-09-18T08:54:43;9.15;;;5.60;;
75408;SDS011;63979;55.644;37.734;2023-09-18T08:59:45;9.23;;;6.13;;
75408;SDS011;63979;55.644;37.734;2023-09-18T09:04:49;9.68;;;5.38;;
75408;SDS011;63979;55.644;37.734;2023-09-18T09:09:50;10.18;;;5.30;;
75408;SDS011;63979;55.644;37.734;2023-09-18T09:15:04;9.55;;;5.65;;
75408;SDS011;63979;55.644;37.734;2023-09-18T09:20:10;8.10;;;5.20;;
75408;SDS011;63979;55.644;37.734;2023-09-18T09:25:25;9.27;;;4.90;;
75408;SDS011;63979;55.644;37.734;2023-09-18T09:30:32;9.65;;;5.63;;
75408;SDS011;63979;55.644;37.734;2023-09-18T09:35:36;10.13;;;4.60;;
75408;SDS011;63979;55.644;37.734;2023-09-18T09:40:40;7.78;;;4.57;;
75408;SDS011;63979;55.644;37.734;2023-09-18T09:45:44;6.35;;;4.68;;
75408;SDS011;63979;55.644;37.734;2023-09-18T09:50:48;11.80;;;4.85;;
75408;SDS011;63979;55.644;37.734;2023-09-18T09:55:53;8.93;;;5.72;;
75408;SDS011;63979;55.644;37.734;2023-09-18T10:00:56;7.13;;;5.63;;
75408;SDS011;63979;55.644;37.734;2023-09-18T10:06:03;12.70;;;5.40;;
75408;SDS011;63979;55.644;37.734;2023-09-18T10:11:06;9.63;;;5.28;;
75408;SDS011;63979;55.644;37.734;2023-09-18T10:16:12;8.18;;;5.30;;
75408;SDS011;63979;55.644;37.734;2023-09-18T10:27:00;7.68;;;4.82;;
75408;SDS011;63979;55.644;37.734;2023-09-18T10:32:05;7.40;;;4.93;;
75408;SDS011;63979;55.644;37.734;2023-09-18T10:37:11;6.43;;;5.10;;
75408;SDS011;63979;55.644;37.734;2023-09-18T10:42:12;8.63;;;4.90;;
75408;SDS011;63979;55.644;37.734;2023-09-18T10:47:17;12.32;;;7.82;;
75408;SDS011;63979;55.644;37.734;2023-09-18T10:52:20;11.15;;;5.63;;
75408;SDS011;63979;55.644;37.734;2023-09-18T10:57:21;11.90;;;6.07;;
75408;SDS011;63979;55.644;37.734;2023-09-18T11:02:22;11.45;;;6.63;;
75408;SDS011;63979;55.644;37.734;2023-09-18T11:07:24;8.88;;;5.72;;
75408;SDS011;63979;55.644;37.734;2023-09-18T11:12:59;17.88;;;6.45;;
75408;SDS011;63979;55.644;37.734;2023-09-18T11:17:58;13.93;;;5.72;;
75408;SDS011;63979;55.644;37.734;2023-09-18T11:23:10;12.43;;;7.00;;
75408;SDS011;63979;55.644;37.734;2023-09-18T11:28:24;10.15;;;6.22;;
75408;SDS011;63979;55.644;37.734;2023-09-18T11:33:33;9.20;;;5.97;;
75408;SDS011;63979;55.644;37.734;2023-09-18T11:38:53;12.35;;;6.10;;
75408;SDS011;63979;55.644;37.734;2023-09-18T11:49:23;7.38;;;4.47;;
75408;SDS011;63979;55.644;37.734;2023-09-18T11:54:28;12.00;;;4.97;;
75408;SDS011;63979;55.644;37.734;2023-09-18T11:59:37;6.97;;;4.90;;
75408;SDS011;63979;55.644;37.734;2023-09-18T12:04:39;8.55;;;4.55;;
75408;SDS011;63979;55.644;37.734;2023-09-18T12:09:40;5.60;;;3.85;;
75408;SDS011;63979;55.644;37.734;2023-09-18T12:14:41;5.05;;;4.15;;
75408;SDS011;63979;55.644;37.734;2023-09-18T12:20:16;6.22;;;3.28;;
75408;SDS011;63979;55.644;37.734;2023-09-18T12:25:19;3.90;;;3.40;;
75408;SDS011;63979;55.644;37.734;2023-09-18T12:30:21;8.88;;;4.10;;
75408;SDS011;63979;55.644;37.734;2023-09-18T12:35:23;6.45;;;3.03;;
75408;SDS011;63979;55.644;37.734;2023-09-18T12:40:30;6.10;;;3.40;;
75408;SDS011;63979;55.644;37.734;2023-09-18T12:45:33;4.13;;;2.70;;
75408;SDS011;63979;55.644;37.734;2023-09-18T12:50:35;7.10;;;2.75;;
75408;SDS011;63979;55.644;37.734;2023-09-18T12:55:37;10.18;;;3.55;;
75408;SDS011;63979;55.644;37.734;2023-09-18T13:00:46;6.97;;;3.88;;
75408;SDS011;63979;55.644;37.734;2023-09-18T13:05:51;8.23;;;4.45;;
75408;SDS011;63979;55.644;37.734;2023-09-18T13:10:55;6.43;;;4.63;;
75408;SDS011;63979;55.644;37.734;2023-09-18T13:15:59;7.88;;;3.80;;
75408;SDS011;63979;55.644;37.734;2023-09-18T13:21:11;5.47;;;3.25;;
75408;SDS011;63979;55.644;37.734;2023-09-18T13:26:14;7.80;;;3.50;;
75408;SDS011;63979;55.644;37.734;2023-09-18T13:31:15;7.85;;;4.05;;
75408;SDS011;63979;55.644;37.734;2023-09-18T13:36:18;7.63;;;4.78;;
75408;SDS011;63979;55.644;37.734;2023-09-18T13:46:20;6.35;;;4.32;;
75408;SDS011;63979;55.644;37.734;2023-09-18T13:51:22;11.02;;;4.70;;
75408;SDS011;63979;55.644;37.734;2023-09-18T13:56:23;6.57;;;3.78;;
75408;SDS011;63979;55.644;37.734;2023-09-18T14:01:28;5.85;;;3.88;;
75408;SDS011;63979;55.644;37.734;2023-09-18T14:06:29;5.47;;;3.67;;
75408;SDS011;63979;55.644;37.734;2023-09-18T14:16:31;3.50;;;2.72;;
75408;SDS011;63979;55.644;37.734;2023-09-18T14:21:34;8.45;;;4.30;;
75408;SDS011;63979;55.644;37.734;2023-09-18T14:26:38;6.18;;;3.70;;
75408;SDS011;63979;55.644;37.734;2023-09-18T14:31:42;11.38;;;4.10;;
75408;SDS011;63979;55.644;37.734;2023-09-18T14:36:43;7.13;;;3.92;;
75408;SDS011;63979;55.644;37.734;2023-09-18T14:41:47;11.07;;;6.28;;
75408;SDS011;63979;55.644;37.734;2023-09-18T14:46:48;10.55;;;5.05;;
75408;SDS011;63979;55.644;37.734;2023-09-18T14:56:53;6.20;;;3.47;;
75408;SDS011;63979;55.644;37.734;2023-09-18T15:01:54;9.60;;;4.22;;
75408;SDS011;63979;55.644;37.734;2023-09-18T15:06:55;6.88;;;3.55;;
75408;SDS011;63979;55.644;37.734;2023-09-18T15:11:57;9.02;;;4.43;;
75408;SDS011;63979;55.644;37.734;2023-09-18T15:16:58;7.05;;;3.85;;
75408;SDS011;63979;55.644;37.734;2023-09-18T15:21:59;5.90;;;3.75;;
75408;SDS011;63979;55.644;37.734;2023-09-18T15:27:01;4.88;;;3.35;;
75408;SDS011;63979;55.644;37.734;2023-09-18T15:32:02;9.18;;;3.65;;
75408;SDS011;63979;55.644;37.734;2023-09-18T15:37:04;9.50;;;4.10;;
75408;SDS011;63979;55.644;37.734;2023-09-18T15:42:05;7.53;;;3.95;;
75408;SDS011;63979;55.644;37.734;2023-09-18T15:47:06;5.18;;;3.25;;
75408;SDS011;63979;55.644;37.734;2023-09-18T15:52:07;6.50;;;3.95;;
75408;SDS011;63979;55.644;37.734;2023-09-18T15:57:08;6.60;;;3.72;;
75408;SDS011;63979;55.644;37.734;2023-09-18T16:02:10;8.60;;;4.10;;
75408;SDS011;63979;55.644;37.734;2023-09-18T16:12:13;6.18;;;4.65;;
75408;SDS011;63979;55.644;37.734;2023-09-18T16:17:14;8.07;;;4.63;;
75408;SDS011;63979;55.644;37.734;2023-09-18T16:22:16;7.65;;;4.40;;
75408;SDS011;63979;55.644;37.734;2023-09-18T16:27:18;10.63;;;4.57;;
75408;SDS011;63979;55.644;37.734;2023-09-18T16:32:20;6.40;;;4.03;;
75408;SDS011;63979;55.644;37.734;2023-09-18T16:37:21;9.10;;;4.55;;
75408;SDS011;63979;55.644;37.734;2023-09-18T16:42:22;7.50;;;4.68;;
75408;SDS011;63979;55.644;37.734;2023-09-18T16:47:23;7.88;;;4.57;;
75408;SDS011;63979;55.644;37.734;2023-09-18T16:52:25;7.32;;;4.45;;
75408;SDS011;63979;55.644;37.734;2023-09-18T16:57:27;7.78;;;4.40;;
75408;SDS011;63979;55.644;37.734;2023-09-18T17:02:28;8.82;;;5.20;;
75408;SDS011;63979;55.644;37.734;2023-09-18T17:07:29;8.65;;;4.90;;
75408;SDS011;63979;55.644;37.734;2023-09-18T17:12:30;11.43;;;6.05;;
75408;SDS011;63979;55.644;37.734;2023-09-18T17:17:31;10.13;;;5.30;;
75408;SDS011;63979;55.644;37.734;2023-09-18T17:22:33;9.60;;;5.30;;
75408;SDS011;63979;55.644;37.734;2023-09-18T17:27:34;14.23;;;5.72;;
75408;SDS011;63979;55.644;37.734;2023-09-18T17:32:36;8.40;;;5.45;;
75408;SDS011;63979;55.644;37.734;2023-09-18T17:37:37;8.35;;;6.53;;
75408;SDS011;63979;55.644;37.734;2023-09-18T17:42:38;11.52;;;6.53;;
75408;SDS011;63979;55.644;37.734;2023-09-18T17:47:39;10.73;;;6.70;;
75408;SDS011;63979;55.644;37.734;2023-09-18T17:52:41;14.88;;;6.53;;
75408;SDS011;63979;55.644;37.734;2023-09-18T17:57:42;8.52;;;6.47;;
75408;SDS011;63979;55.644;37.734;2023-09-18T18:02:45;9.88;;;5.82;;
75408;SDS011;63979;55.644;37.734;2023-09-18T18:07:47;14.32;;;10.02;;
75408;SDS011;63979;55.644;37.734;2023-09-18T18:12:49;15.18;;;7.32;;
75408;SDS011;63979;55.644;37.734;2023-09-18T18:17:49;16.52;;;6.45;;
75408;SDS011;63979;55.644;37.734;2023-09-18T18:22:50;13.95;;;6.88;;
75408;SDS011;63979;55.644;37.734;2023-09-18T18:27:52;11.43;;;6.05;;
75408;SDS011;63979;55.644;37.734;2023-09-18T18:32:53;12.90;;;7.40;;
75408;SDS011;63979;55.644;37.734;2023-09-18T18:37:54;15.27;;;6.90;;
75408;SDS011;63979;55.644;37.734;2023-09-18T18:42:55;12.55;;;7.38;;
75408;SDS011;63979;55.644;37.734;2023-09-18T18:47:57;12.77;;;7.82;;
75408;SDS011;63979;55.644;37.734;2023-09-18T18:53:01;15.25;;;7.53;;
75408;SDS011;63979;55.644;37.734;2023-09-18T18:58:03;15.65;;;7.97;;
75408;SDS011;63979;55.644;37.734;2023-09-18T19:03:06;16.23;;;7.60;;
75408;SDS011;63979;55.644;37.734;2023-09-18T19:08:09;15.93;;;7.97;;
75408;SDS011;63979;55.644;37.734;2023-09-18T19:13:10;20.52;;;7.82;;
75408;SDS011;63979;55.644;37.734;2023-09-18T19:18:13;14.75;;;8.65;;
75408;SDS011;63979;55.644;37.734;2023-09-18T19:23:14;13.55;;;7.90;;
75408;SDS011;63979;55.644;37.734;2023-09-18T19:28:16;16.63;;;8.93;;
75408;SDS011;63979;55.644;37.734;2023-09-18T19:33:17;12.85;;;7.30;;
75408;SDS011;63979;55.644;37.734;2023-09-18T19:38:19;12.45;;;8.05;;
75408;SDS011;63979;55.644;37.734;2023-09-18T19:43:20;17.33;;;8.02;;
75408;SDS011;63979;55.644;37.734;2023-09-18T19:48:22;14.98;;;8.50;;
75408;SDS011;63979;55.644;37.734;2023-09-18T19:53:23;13.45;;;8.10;;
75408;SDS011;63979;55.644;37.734;2023-09-18T19:58:25;14.65;;;10.05;;
75408;SDS011;63979;55.644;37.734;2023-09-18T20:03:26;16.25;;;8.93;;
75408;SDS011;63979;55.644;37.734;2023-09-18T20:08:27;19.15;;;9.60;;
75408;SDS011;63979;55.644;37.734;2023-09-18T20:13:28;17.10;;;8.65;;
75408;SDS011;63979;55.644;37.734;2023-09-18T20:18:30;14.43;;;8.60;;
75408;SDS011;63979;55.644;37.734;2023-09-18T20:23:31;13.70;;;8.18;;
75408;SDS011;63979;55.644;37.734;2023-09-18T20:28:32;12.80;;;7.30;;
75408;SDS011;63979;55.644;37.734;2023-09-18T20:33:35;16.27;;;8.40;;
75408;SDS011;63979;55.644;37.734;2023-09-18T20:38:36;15.60;;;8.15;;
75408;SDS011;63979;55.644;37.734;2023-09-18T20:43:38;18.38;;;7.28;;
75408;SDS011;63979;55.644;37.734;2023-09-18T20:48:44;14.30;;;7.25;;
75408;SDS011;63979;55.644;37.734;2023-09-18T20:53:45;14.02;;;9.30;;
75408;SDS011;63979;55.644;37.734;2023-09-18T20:58:52;21.60;;;10.45;;
75408;SDS011;63979;55.644;37.734;2023-09-18T21:03:56;16.42;;;8.95;;
75408;SDS011;63979;55.644;37.734;2023-09-18T21:08:57;13.98;;;8.73;;
75408;SDS011;63979;55.644;37.734;2023-09-18T21:13:59;14.38;;;9.02;;
75408;SDS011;63979;55.644;37.734;2023-09-18T21:19:00;18.48;;;8.68;;
75408;SDS011;63979;55.644;37.734;2023-09-18T21:24:01;14.85;;;9.35;;
75408;SDS011;63979;55.644;37.734;2023-09-18T21:29:02;15.23;;;9.70;;
75408;SDS011;63979;55.644;37.734;2023-09-18T21:34:03;15.55;;;9.45;;
75408;SDS011;63979;55.644;37.734;2023-09-18T21:39:04;17.50;;;9.32;;
75408;SDS011;63979;55.644;37.734;2023-09-18T21:44:05;20.20;;;10.02;;
75408;SDS011;63979;55.644;37.734;2023-09-18T21:49:06;23.25;;;11.95;;
75408;SDS011;63979;55.644;37.734;2023-09-18T21:54:07;20.88;;;11.40;;
75408;SDS011;63979;55.644;37.734;2023-09-18T21:59:09;21.42;;;12.27;;
75408;SDS011;63979;55.644;37.734;2023-09-18T22:04:11;17.60;;;11.40;;
75408;SDS011;63979;55.644;37.734;2023-09-18T22:09:15;22.83;;;11.70;;
75408;SDS011;63979;55.644;37.734;2023-09-18T22:14:16;23.45;;;13.32;;
75408;SDS011;63979;55.644;37.734;2023-09-18T22:24:19;21.58;;;12.20;;
75408;SDS011;63979;55.644;37.734;2023-09-18T22:29:20;25.67;;;13.45;;
75408;SDS011;63979;55.644;37.734;2023-09-18T22:34:21;30.20;;;13.48;;
75408;SDS011;63979;55.644;37.734;2023-09-18T22:56:14;23.70;;;12.70;;
75408;SDS011;63979;55.644;37.734;2023-09-18T23:06:17;24.92;;;15.10;;
75408;SDS011;63979;55.644;37.734;2023-09-18T23:11:18;25.55;;;15.75;;
75408;SDS011;63979;55.644;37.734;2023-09-18T23:16:19;22.83;;;14.45;;
75408;SDS011;63979;55.644;37.734;2023-09-18T23:21:25;30.08;;;16.52;;
75408;SDS011;63979;55.644;37.734;2023-09-18T23:26:26;29.15;;;17.08;;
75408;SDS011;63979;55.644;37.734;2023-09-18T23:31:29;29.23;;;16.83;;
75408;SDS011;63979;55.644;37.734;2023-09-18T23:36:30;32.92;;;18.33;;
75408;SDS011;63979;55.644;37.734;2023-09-18T23:46:34;31.60;;;17.15;;
75408;SDS011;63979;55.644;37.734;2023-09-18T23:51:34;26.92;;;16.73;;
75408;SDS011;63979;55.644;37.734;2023-09-18T23:56:37;29.80;;;17.33;;
